Time;durP1;ratioP1;P1;durP2;ratioP2;P2;SDS_P1;SDS_P2;PMS_P1;PMS_P2;Temp;Humidity;BMP_temperature;BMP_pressure;BME280_temperature;BME280_humidity;BME280_pressure;Samples;Min_cycle;Max_cycle;Signal;HPM_P1;HPM_P2
2021/12/14 00:01:54;;;;;;;25.17;12.30;;;;;;;9.46;70.68;97667.06;5051732;28;20425;-67
2021/12/14 00:04:25;;;;;;;23.50;9.97;;;;;;;9.18;71.02;97663.41;5059763;28;20918;-67
2021/12/14 00:06:51;;;;;;;23.00;11.37;;;;;;;9.33;70.75;97661.25;5043065;28;20461;-68
2021/12/14 00:09:26;;;;;;;27.47;12.00;;;;;;;9.41;70.56;97658.78;5061715;28;20928;-69
2021/12/14 00:13:08;;;;;;;30.77;11.77;;;;;;;9.48;70.73;97665.16;5055610;28;20428;-67
2021/12/14 00:15:04;;;;;;;25.90;12.47;;;;;;;9.24;70.88;97668.09;5060319;28;20438;-67
2021/12/14 00:17:40;;;;;;;26.40;13.00;;;;;;;9.46;70.90;97661.84;5043656;28;20452;-67
2021/12/14 00:20:13;;;;;;;29.63;11.53;;;;;;;9.41;70.47;97663.22;5046355;28;20414;-66
2021/12/14 00:25:31;;;;;;;27.77;12.80;;;;;;;9.41;70.60;97664.03;5048402;28;20451;-67
2021/12/14 00:28:00;;;;;;;26.60;12.00;;;;;;;9.28;70.66;97653.81;5061583;28;20494;-67
2021/12/14 00:30:25;;;;;;;21.33;9.83;;;;;;;9.14;70.59;97654.16;5065487;28;20425;-67
2021/12/14 00:32:51;;;;;;;25.03;11.27;;;;;;;9.21;71.20;97663.13;5060675;28;20424;-68
2021/12/14 00:35:17;;;;;;;26.20;10.90;;;;;;;9.24;71.08;97669.91;5015499;28;1189375;-66
2021/12/14 00:37:46;;;;;;;24.07;10.07;;;;;;;8.79;72.28;97671.09;5042795;28;20198;-67
2021/12/14 00:40:18;;;;;;;30.70;10.90;;;;;;;8.75;71.93;97675.75;5056493;28;20171;-66
2021/12/14 00:42:45;;;;;;;27.40;11.70;;;;;;;8.95;71.63;97671.41;5062937;28;20425;-67
2021/12/14 00:45:10;;;;;;;23.87;10.07;;;;;;;8.74;72.50;97659.22;5071802;28;20447;-68
2021/12/14 00:47:36;;;;;;;23.37;10.47;;;;;;;8.96;72.10;97657.38;5055315;28;20511;-67
2021/12/14 00:50:04;;;;;;;29.70;10.97;;;;;;;8.87;71.96;97666.03;5054669;28;20175;-69
2021/12/14 00:52:30;;;;;;;25.90;10.33;;;;;;;8.57;72.82;97665.88;5057694;28;20261;-67
2021/12/14 00:54:55;;;;;;;27.37;11.60;;;;;;;8.63;73.09;97671.56;5059892;28;20529;-68
2021/12/14 00:57:21;;;;;;;33.80;11.67;;;;;;;8.89;72.03;97667.53;5066326;28;20302;-66
2021/12/14 00:59:47;;;;;;;37.73;11.83;;;;;;;8.81;71.94;97662.16;5055808;28;21009;-67
2021/12/14 01:02:17;;;;;;;25.50;10.27;;;;;;;8.73;72.92;97662.78;5065180;28;20182;-67
2021/12/14 01:04:46;;;;;;;29.53;10.57;;;;;;;8.85;72.58;97670.56;5062733;28;20266;-65
2021/12/14 01:07:14;;;;;;;28.77;10.00;;;;;;;8.90;72.26;97665.78;5070228;28;20460;-68
2021/12/14 01:09:44;;;;;;;26.40;10.20;;;;;;;9.03;71.71;97681.22;5063287;28;20457;-67
2021/12/14 01:12:22;;;;;;;24.37;10.87;;;;;;;8.86;72.60;97675.66;5063748;28;20512;-67
2021/12/14 01:15:10;;;;;;;21.53;9.60;;;;;;;9.01;72.15;97683.97;5061998;28;20416;-65
2021/12/14 01:17:42;;;;;;;25.47;9.50;;;;;;;9.09;71.20;97690.34;5060107;28;20453;-66
2021/12/14 01:20:11;;;;;;;26.23;10.20;;;;;;;9.18;71.48;97700.03;5050862;28;20442;-67
2021/12/14 01:22:42;;;;;;;23.63;11.00;;;;;;;9.06;71.22;97697.50;5060914;28;20427;-67
2021/12/14 01:25:21;;;;;;;28.53;9.80;;;;;;;8.96;71.89;97691.38;5056058;28;20927;-68
2021/12/14 01:27:58;;;;;;;24.13;9.33;;;;;;;8.51;72.85;97686.47;5051739;28;20450;-66
2021/12/14 01:30:35;;;;;;;20.97;10.30;;;;;;;8.47;73.82;97693.69;5053412;28;20425;-68
2021/12/14 01:33:05;;;;;;;29.67;11.83;;;;;;;8.88;72.89;97696.44;5053594;28;20450;-67
2021/12/14 01:35:35;;;;;;;22.57;10.17;;;;;;;9.05;71.80;97705.47;5068045;28;20437;-66
2021/12/14 01:39:08;;;;;;;30.73;10.60;;;;;;;9.12;71.20;97703.16;5060793;28;20449;-67
2021/12/14 01:40:58;;;;;;;32.17;11.37;;;;;;;9.06;71.69;97701.88;5054610;28;20434;-66
2021/12/14 01:43:50;;;;;;;29.23;10.67;;;;;;;9.00;71.18;97695.41;5062979;28;20457;-66
2021/12/14 01:46:26;;;;;;;26.87;10.60;;;;;;;9.14;71.49;97698.63;5048618;28;20460;-68
2021/12/14 01:48:53;;;;;;;22.97;10.83;;;;;;;9.24;71.25;97709.94;5055230;28;20907;-67
2021/12/14 01:51:19;;;;;;;22.40;10.37;;;;;;;9.25;71.23;97711.63;5070937;28;20999;-68
2021/12/14 01:53:48;;;;;;;23.27;10.17;;;;;;;9.31;70.40;97702.41;5070326;28;20499;-68
2021/12/14 01:56:16;;;;;;;24.20;10.00;;;;;;;9.26;70.65;97702.81;5043508;28;20996;-67
2021/12/14 01:58:45;;;;;;;33.87;9.47;;;;;;;8.76;71.96;97704.34;5059071;28;20429;-65
2021/12/14 02:01:16;;;;;;;31.67;10.17;;;;;;;9.07;71.78;97704.38;5061603;28;20512;-68
2021/12/14 02:03:46;;;;;;;26.30;10.00;;;;;;;8.56;73.12;97707.81;5053367;28;20565;-68
2021/12/14 02:06:16;;;;;;;25.37;10.70;;;;;;;8.85;72.05;97704.53;5065561;28;20464;-67
2021/12/14 02:08:42;;;;;;;42.83;10.57;;;;;;;8.95;71.64;97700.19;5058601;28;20869;-67
2021/12/14 02:11:09;;;;;;;20.90;9.77;;;;;;;9.13;71.70;97696.97;5066290;28;20461;-68
2021/12/14 02:13:44;;;;;;;30.83;11.77;;;;;;;9.21;71.61;97694.50;5040868;28;20448;-67
2021/12/14 02:16:13;;;;;;;21.50;10.70;;;;;;;9.08;71.54;97699.97;5063285;28;20514;-69
2021/12/14 02:18:45;;;;;;;33.63;11.00;;;;;;;9.15;70.86;97695.06;5053700;28;20427;-68
2021/12/14 02:21:12;;;;;;;19.20;9.43;;;;;;;8.99;71.73;97691.13;5051408;28;20449;-66
2021/12/14 02:23:42;;;;;;;25.60;10.83;;;;;;;8.99;71.66;97685.91;5069568;28;20474;-69
2021/12/14 02:26:12;;;;;;;20.50;10.73;;;;;;;9.03;71.45;97692.53;5048882;28;20464;-66
2021/12/14 02:28:38;;;;;;;25.40;10.70;;;;;;;8.96;71.43;97699.22;5061926;28;20420;-69
2021/12/14 02:31:05;;;;;;;29.37;11.10;;;;;;;9.09;71.21;97690.34;5050222;28;20965;-67
2021/12/14 02:33:35;;;;;;;28.00;10.67;;;;;;;9.07;71.11;97690.47;5069784;28;20429;-66
2021/12/14 02:36:05;;;;;;;19.80;9.27;;;;;;;9.22;71.33;97696.16;5069085;28;20440;-68
2021/12/14 02:38:31;;;;;;;21.37;10.00;;;;;;;9.26;70.93;97700.19;5059720;28;20452;-66
2021/12/14 02:41:05;;;;;;;27.20;11.63;;;;;;;9.15;71.28;97693.25;5063317;28;20420;-67
2021/12/14 02:43:36;;;;;;;24.23;9.57;;;;;;;9.30;70.60;97687.66;5065365;28;20191;-67
2021/12/14 02:46:22;;;;;;;24.53;9.53;;;;;;;9.34;70.49;97683.84;5061377;28;20460;-67
2021/12/14 02:48:57;;;;;;;22.60;10.00;;;;;;;9.10;70.63;97686.75;5070422;28;20424;-68
2021/12/14 02:51:30;;;;;;;27.23;10.00;;;;;;;8.84;71.39;97688.03;5065017;28;20432;-67
2021/12/14 02:54:01;;;;;;;24.00;10.10;;;;;;;8.55;72.58;97695.69;5058430;28;20794;-68
2021/12/14 02:56:30;;;;;;;21.67;8.80;;;;;;;8.13;73.23;97686.00;5065230;28;20531;-67
2021/12/14 02:59:02;;;;;;;32.23;9.10;;;;;;;8.00;74.07;97687.00;5057866;28;20496;-68
2021/12/14 03:01:29;;;;;;;23.50;8.00;;;;;;;8.00;74.66;97684.38;5043059;28;20433;-69
2021/12/14 03:04:03;;;;;;;19.10;8.63;;;;;;;7.76;75.34;97691.56;5059094;28;20433;-69
2021/12/14 03:06:31;;;;;;;16.30;8.13;;;;;;;8.11;73.87;97685.31;5055116;28;20945;-69
2021/12/14 03:09:09;;;;;;;30.27;9.53;;;;;;;8.14;73.77;97685.88;5056615;28;20425;-68
2021/12/14 03:11:37;;;;;;;16.97;8.23;;;;;;;7.98;73.96;97685.47;5066765;28;20486;-69
2021/12/14 03:14:03;;;;;;;19.07;8.67;;;;;;;8.17;73.98;97684.00;5058927;28;21248;-69
2021/12/14 03:16:31;;;;;;;24.73;8.70;;;;;;;8.27;72.80;97677.88;5064297;28;20440;-68
2021/12/14 03:18:59;;;;;;;33.00;9.20;;;;;;;8.24;73.06;97674.69;5068839;28;20420;-68
2021/12/14 03:21:32;;;;;;;36.10;9.23;;;;;;;8.44;72.56;97671.25;5060965;28;20532;-69
2021/12/14 03:24:04;;;;;;;27.53;8.90;;;;;;;8.34;72.96;97677.38;5066514;28;20481;-69
2021/12/14 03:26:31;;;;;;;34.53;9.00;;;;;;;8.06;74.08;97677.03;5060436;28;21917;-69
2021/12/14 03:29:00;;;;;;;24.87;8.77;;;;;;;8.42;72.25;97674.94;5056828;28;21045;-68
2021/12/14 03:31:32;;;;;;;38.40;8.20;;;;;;;8.37;72.29;97679.75;5050716;28;20468;-69
2021/12/14 03:34:02;;;;;;;39.67;9.10;;;;;;;8.01;74.04;97674.78;5064067;28;20441;-68
2021/12/14 03:36:40;;;;;;;19.00;8.40;;;;;;;8.33;73.46;97668.69;5074155;28;20892;-67
2021/12/14 03:39:23;;;;;;;20.40;9.70;;;;;;;8.36;72.72;97668.44;5059188;28;20424;-69
2021/12/14 03:41:56;;;;;;;21.20;9.23;;;;;;;8.02;73.47;97676.44;5066170;28;20567;-69
2021/12/14 03:44:33;;;;;;;30.23;9.37;;;;;;;7.61;75.29;97683.19;5074270;28;20435;-68
2021/12/14 03:47:05;;;;;;;18.03;8.03;;;;;;;7.99;74.83;97684.50;5058501;28;20538;-67
2021/12/14 03:49:34;;;;;;;18.20;8.17;;;;;;;8.15;73.43;97687.53;5058747;28;20622;-67
2021/12/14 03:52:00;;;;;;;20.10;8.67;;;;;;;7.92;73.99;97693.81;5065315;28;20497;-68
2021/12/14 03:54:27;;;;;;;23.13;9.40;;;;;;;7.74;74.24;97696.94;5060187;28;20441;-70
2021/12/14 03:56:53;;;;;;;43.60;7.90;;;;;;;7.71;74.63;97699.78;5060057;28;20452;-68
2021/12/14 03:59:19;;;;;;;25.57;7.80;;;;;;;7.69;74.36;97691.22;5057665;28;20436;-69
2021/12/14 04:01:48;;;;;;;21.10;6.87;;;;;;;7.58;75.02;97699.09;5055451;28;20505;-69
2021/12/14 04:04:16;;;;;;;28.30;7.50;;;;;;;7.79;74.03;97697.41;5062235;28;20449;-69
2021/12/14 04:06:43;;;;;;;16.80;7.07;;;;;;;7.51;74.38;97699.59;5069384;28;20600;-68
2021/12/14 04:09:12;;;;;;;13.30;6.63;;;;;;;7.67;74.24;97703.59;5027832;28;20480;-67
2021/12/14 04:11:38;;;;;;;12.00;6.10;;;;;;;6.96;75.15;97711.66;5059885;28;20512;-68
2021/12/14 04:14:03;;;;;;;8.00;5.30;;;;;;;6.97;75.15;97708.13;5054248;28;20478;-69
2021/12/14 04:16:29;;;;;;;11.50;5.53;;;;;;;6.89;75.20;97712.16;5062515;28;20438;-68
2021/12/14 04:19:03;;;;;;;10.00;5.20;;;;;;;6.33;76.33;97692.03;5060352;28;20634;-68
2021/12/14 04:21:28;;;;;;;9.90;5.10;;;;;;;7.09;74.42;97683.72;5067447;28;20247;-69
2021/12/14 04:23:54;;;;;;;9.93;5.90;;;;;;;7.21;73.19;97687.97;5057228;28;20422;-69
2021/12/14 04:26:20;;;;;;;10.43;5.37;;;;;;;7.07;73.33;97680.41;5062606;28;20615;-67
2021/12/14 04:28:53;;;;;;;10.10;6.13;;;;;;;7.49;71.92;97675.41;5063464;28;20183;-67
2021/12/14 04:31:19;;;;;;;7.90;4.40;;;;;;;7.32;72.80;97670.66;5064397;28;20240;-71
2021/12/14 04:33:49;;;;;;;11.50;4.77;;;;;;;7.39;72.51;97687.50;5063023;28;20434;-68
2021/12/14 04:36:18;;;;;;;9.40;6.00;;;;;;;7.14;72.90;97686.81;5065208;28;20483;-69
2021/12/14 04:38:51;;;;;;;12.10;5.40;;;;;;;7.59;71.98;97667.69;5067376;28;20505;-70
2021/12/14 04:52:22;;;;;;;8.90;5.03;;;;;;;7.73;70.13;97660.53;5054104;28;20512;-69
2021/12/14 04:54:54;;;;;;;11.03;5.20;;;;;;;7.64;70.64;97669.91;5067011;28;20452;-69
2021/12/14 04:57:24;;;;;;;11.97;5.13;;;;;;;7.69;71.09;97657.31;5056883;28;20469;-66
2021/12/14 04:59:52;;;;;;;7.90;4.70;;;;;;;7.72;70.18;97653.66;5058585;28;20503;-68
2021/12/14 05:02:29;;;;;;;8.10;5.57;;;;;;;7.30;70.82;97644.72;5047654;28;20929;-69
2021/12/14 05:04:56;;;;;;;10.30;5.30;;;;;;;7.58;70.62;97646.91;5068811;28;20457;-69
2021/12/14 05:10:00;;;;;;;10.50;5.10;;;;;;;7.40;70.40;97650.06;5052150;28;20425;-69
2021/12/14 05:12:28;;;;;;;7.97;5.10;;;;;;;7.38;70.78;97642.34;5070068;28;20450;-67
2021/12/14 05:14:55;;;;;;;15.93;4.70;;;;;;;6.69;72.34;97642.47;5053559;28;20927;-69
2021/12/14 05:17:29;;;;;;;13.33;5.27;;;;;;;6.96;72.16;97628.28;5059989;28;20447;-69
2021/12/14 05:19:56;;;;;;;10.77;5.37;;;;;;;6.97;72.36;97622.13;5052657;28;20422;-67
2021/12/14 05:22:28;;;;;;;61.37;5.90;;;;;;;6.88;72.03;97621.91;5053020;28;20872;-68
2021/12/14 05:24:56;;;;;;;15.30;6.10;;;;;;;7.01;72.16;97620.94;5063948;28;20972;-68
2021/12/14 05:27:27;;;;;;;14.00;5.73;;;;;;;6.96;72.78;97623.06;5063695;28;21053;-68
2021/12/14 05:29:54;;;;;;;10.33;5.23;;;;;;;6.94;72.59;97633.63;5061850;28;20433;-68
2021/12/14 05:32:20;;;;;;;12.90;5.50;;;;;;;7.08;71.93;97645.56;5062656;28;20527;-69
2021/12/14 05:34:49;;;;;;;25.03;5.90;;;;;;;7.05;71.74;97645.81;5062478;28;20529;-69
2021/12/14 05:37:24;;;;;;;9.90;5.83;;;;;;;6.77;72.81;97674.00;5062162;28;20581;-68
2021/12/14 05:40:03;;;;;;;8.40;5.30;;;;;;;6.51;73.48;97674.19;5046093;28;20432;-70
2021/12/14 05:45:21;;;;;;;5.83;4.47;;;;;;;7.16;70.92;97661.47;5053305;28;20932;-69
2021/12/14 05:47:50;;;;;;;7.93;5.27;;;;;;;7.28;70.90;97624.94;5052602;28;20895;-67
2021/12/14 05:50:19;;;;;;;8.40;5.07;;;;;;;7.15;70.90;97619.84;5057301;28;20842;-68
2021/12/14 05:52:45;;;;;;;7.83;4.80;;;;;;;7.11;70.67;97624.47;5050090;28;20436;-68
2021/12/14 05:55:11;;;;;;;8.33;4.27;;;;;;;7.16;70.47;97630.19;5070958;28;20790;-68
2021/12/14 05:57:37;;;;;;;7.83;4.87;;;;;;;7.31;70.38;97629.94;5061909;28;20203;-68
2021/12/14 06:00:04;;;;;;;6.70;4.53;;;;;;;7.12;70.46;97644.38;5065389;28;20658;-68
2021/12/14 06:02:29;;;;;;;8.33;5.10;;;;;;;6.45;72.74;97643.41;5060138;28;20239;-68
2021/12/14 06:04:55;;;;;;;7.27;5.17;;;;;;;6.77;71.83;97650.56;5068309;28;20424;-69
2021/12/14 06:07:21;;;;;;;7.97;5.17;;;;;;;7.07;71.44;97652.56;5056291;28;20221;-66
2021/12/14 06:09:50;;;;;;;10.00;6.30;;;;;;;7.03;70.80;97652.94;5035171;28;20187;-68
2021/12/14 06:12:26;;;;;;;8.20;5.23;;;;;;;7.04;71.10;97641.56;5059485;28;20424;-68
2021/12/14 06:14:55;;;;;;;8.73;5.40;;;;;;;6.74;71.56;97637.75;5057989;28;20434;-68
2021/12/14 06:17:30;;;;;;;9.17;6.27;;;;;;;6.70;71.47;97639.78;5061039;28;20451;-69
2021/12/14 06:20:07;;;;;;;8.40;5.70;;;;;;;6.21;73.54;97646.88;5043268;28;20429;-68
2021/12/14 06:22:33;;;;;;;8.70;6.20;;;;;;;6.52;72.56;97639.41;5056356;28;20421;-68
2021/12/14 06:25:02;;;;;;;8.23;5.73;;;;;;;6.60;71.90;97652.66;5067602;28;20450;-68
2021/12/14 06:27:30;;;;;;;9.43;6.20;;;;;;;6.39;72.46;97646.47;5066666;28;20543;-68
2021/12/14 06:30:08;;;;;;;9.70;6.53;;;;;;;6.68;71.57;97644.28;5068597;28;20796;-69
2021/12/14 06:32:41;;;;;;;9.60;6.17;;;;;;;6.93;71.16;97637.16;5068146;28;20428;-69
2021/12/14 06:35:27;;;;;;;9.30;5.90;;;;;;;7.04;70.15;97629.34;5052992;28;20417;-68
2021/12/14 06:40:31;;;;;;;10.67;5.97;;;;;;;6.75;70.62;97626.41;5071299;28;20424;-68
2021/12/14 06:43:04;;;;;;;9.30;6.50;;;;;;;6.73;70.71;97621.31;5046645;28;20521;-68
2021/12/14 06:45:35;;;;;;;15.00;7.20;;;;;;;6.99;69.87;97620.22;5050685;28;20475;-69
2021/12/14 06:48:26;;;;;;;13.27;7.17;;;;;;;6.83;70.33;97631.03;5069176;28;20501;-68
2021/12/14 06:51:04;;;;;;;14.30;8.00;;;;;;;6.97;70.22;97629.94;5065813;28;20444;-67
2021/12/14 06:53:31;;;;;;;13.33;8.00;;;;;;;6.97;69.76;97627.34;5059411;28;20460;-68
2021/12/14 06:56:00;;;;;;;15.73;8.27;;;;;;;6.82;69.82;97624.16;5053201;28;20417;-68
2021/12/14 06:58:31;;;;;;;12.10;7.50;;;;;;;6.98;69.64;97627.22;5071070;28;20524;-68
2021/12/14 07:01:03;;;;;;;11.80;7.67;;;;;;;6.94;69.35;97614.53;5061964;28;20428;-69
2021/12/14 07:03:36;;;;;;;13.40;8.77;;;;;;;7.06;69.22;97611.81;5064024;28;20421;-68
2021/12/14 07:06:02;;;;;;;14.10;8.30;;;;;;;6.97;69.48;97594.28;5063145;28;20959;-67
2021/12/14 07:08:27;;;;;;;13.63;7.97;;;;;;;6.85;69.71;97597.88;5061271;28;20447;-69
2021/12/14 07:10:53;;;;;;;12.77;7.53;;;;;;;7.02;69.16;97597.34;5063295;28;20959;-68
2021/12/14 07:13:35;;;;;;;14.47;7.50;;;;;;;7.08;69.62;97590.84;5051098;28;20242;-68
2021/12/14 07:16:22;;;;;;;10.77;7.27;;;;;;;7.16;69.06;97582.41;5055302;28;20498;-70
2021/12/14 07:18:54;;;;;;;10.17;6.53;;;;;;;7.13;68.55;97591.31;5067228;28;20875;-69
2021/12/14 07:21:33;;;;;;;9.20;6.90;;;;;;;7.21;68.69;97588.91;5058243;28;20413;-69
2021/12/14 07:23:58;;;;;;;9.90;6.57;;;;;;;7.10;68.90;97599.38;5062839;28;20421;-69
2021/12/14 07:26:24;;;;;;;10.30;6.93;;;;;;;7.17;68.37;97586.69;5058909;28;20448;-68
2021/12/14 07:28:50;;;;;;;9.10;6.60;;;;;;;6.84;69.32;97580.56;5072546;28;20720;-68
2021/12/14 07:31:20;;;;;;;9.30;6.57;;;;;;;6.76;69.60;97576.75;5066129;28;20178;-69
2021/12/14 07:33:54;;;;;;;12.23;7.07;;;;;;;6.86;69.27;97578.69;5063440;28;20424;-68
2021/12/14 07:36:30;;;;;;;14.60;6.57;;;;;;;6.86;69.44;97594.31;5059891;28;20433;-68
2021/12/14 07:39:10;;;;;;;9.03;5.93;;;;;;;7.09;68.95;97599.50;5069291;28;20447;-68
2021/12/14 07:41:41;;;;;;;9.53;7.23;;;;;;;7.15;68.69;97615.47;5060626;28;20428;-69
2021/12/14 07:44:17;;;;;;;10.70;7.53;;;;;;;7.06;68.73;97617.03;5046647;28;20513;-70
2021/12/14 07:46:44;;;;;;;10.87;7.17;;;;;;;7.08;68.33;97619.50;5050260;28;20458;-67
2021/12/14 07:49:24;;;;;;;9.73;6.20;;;;;;;7.10;68.21;97616.78;5050967;28;20426;-67
2021/12/14 07:51:52;;;;;;;8.50;6.77;;;;;;;7.17;68.72;97624.03;5045322;28;20883;-68
2021/12/14 07:54:28;;;;;;;11.47;6.83;;;;;;;7.37;68.04;97622.41;5057428;28;20903;-68
2021/12/14 07:57:30;;;;;;;10.97;7.20;;;;;;;7.27;68.11;97629.31;5074203;28;20482;-68
2021/12/14 08:00:14;;;;;;;10.90;7.57;;;;;;;7.30;67.96;97618.66;5069486;28;20540;-69
2021/12/14 08:02:42;;;;;;;9.87;6.73;;;;;;;7.36;68.01;97612.13;5043127;28;21152;-68
2021/12/14 08:05:40;;;;;;;9.50;7.20;;;;;;;7.32;68.04;97610.69;5071504;28;20911;-69
2021/12/14 08:08:31;;;;;;;10.53;6.93;;;;;;;7.03;68.46;97603.41;5067722;28;20895;-69
2021/12/14 08:12:02;;;;;;;12.60;7.60;;;;;;;7.05;68.40;97604.13;5060873;28;20425;-69
2021/12/14 08:14:05;;;;;;;25.10;14.90;;;;;;;7.21;68.41;97617.59;5051768;28;20437;-70
2021/12/14 08:16:55;;;;;;;13.60;9.10;;;;;;;7.32;67.70;97634.16;5045884;28;20969;-69
2021/12/14 08:19:41;;;;;;;28.67;16.47;;;;;;;7.41;68.12;97636.06;5048341;28;20457;-69
2021/12/14 08:22:28;;;;;;;23.23;12.40;;;;;;;7.30;68.45;97652.53;5047299;28;20441;-69
2021/12/14 08:24:54;;;;;;;12.47;8.10;;;;;;;7.17;69.44;97644.88;5064706;28;20416;-69
2021/12/14 08:27:22;;;;;;;11.00;7.80;;;;;;;7.44;68.68;97651.44;5042088;28;20468;-69
2021/12/14 08:29:53;;;;;;;12.10;8.30;;;;;;;7.43;68.48;97659.41;5070922;28;20198;-68
2021/12/14 08:32:23;;;;;;;7.77;6.27;;;;;;;7.42;69.17;97662.97;5067234;28;20425;-69
2021/12/14 08:34:51;;;;;;;7.00;6.10;;;;;;;7.48;68.91;97665.09;5060024;28;20438;-69
2021/12/14 08:37:18;;;;;;;8.73;6.70;;;;;;;7.88;68.50;97658.47;5072081;28;21006;-68
2021/12/14 08:39:55;;;;;;;12.10;7.50;;;;;;;7.43;69.58;97662.84;5064833;28;20433;-69
2021/12/14 08:42:30;;;;;;;8.33;5.23;;;;;;;7.28;70.83;97669.28;5064187;28;20416;-69
2021/12/14 08:44:59;;;;;;;7.27;6.00;;;;;;;7.77;69.95;97656.69;5074765;28;20507;-68
2021/12/14 08:47:33;;;;;;;9.20;6.10;;;;;;;7.46;70.76;97667.81;5074890;28;20456;-69
2021/12/14 08:50:01;;;;;;;7.07;5.30;;;;;;;7.45;70.79;97650.50;5058116;28;20911;-68
2021/12/14 08:52:27;;;;;;;6.63;5.60;;;;;;;7.46;71.59;97659.97;5062164;28;20437;-68
2021/12/14 08:54:54;;;;;;;6.13;5.20;;;;;;;7.81;71.59;97645.06;5061936;28;20440;-67
2021/12/14 08:57:23;;;;;;;7.37;5.00;;;;;;;8.01;70.35;97653.91;5073324;28;20518;-67
2021/12/14 08:59:52;;;;;;;8.73;5.10;;;;;;;8.09;70.40;97653.28;5071391;28;20887;-67
2021/12/14 09:02:18;;;;;;;15.73;7.90;;;;;;;8.54;68.85;97644.41;5055046;28;20462;-67
2021/12/14 09:04:51;;;;;;;8.13;5.50;;;;;;;8.58;67.92;97637.94;5062198;28;20934;-67
2021/12/14 09:07:21;;;;;;;7.23;5.67;;;;;;;8.80;67.50;97641.38;5067767;28;20203;-65
2021/12/14 09:09:47;;;;;;;7.00;5.47;;;;;;;9.11;67.15;97641.34;5031388;28;20414;-66
2021/12/14 09:12:14;;;;;;;26.87;13.90;;;;;;;9.13;66.53;97644.66;5061399;28;20425;-67
2021/12/14 09:14:41;;;;;;;6.27;5.13;;;;;;;9.33;65.80;97650.78;5053406;28;20222;-68
2021/12/14 09:17:10;;;;;;;16.23;5.50;;;;;;;9.57;65.76;97653.06;5077399;28;20844;-68
2021/12/14 09:19:40;;;;;;;7.13;5.00;;;;;;;9.70;65.08;97667.69;5068333;28;20471;-66
2021/12/14 09:22:10;;;;;;;6.80;4.60;;;;;;;8.99;65.38;97674.63;5058830;28;20933;-67
2021/12/14 09:24:36;;;;;;;6.30;4.33;;;;;;;9.48;65.04;97664.31;5050043;28;20434;-66
2021/12/14 09:27:05;;;;;;;9.17;6.17;;;;;;;9.40;65.42;97667.59;5063214;28;20453;-66
2021/12/14 09:29:31;;;;;;;4.43;3.70;;;;;;;9.81;64.19;97668.38;5059256;28;20421;-67
2021/12/14 09:31:59;;;;;;;5.07;4.33;;;;;;;9.93;63.63;97656.00;5056708;28;20449;-68
2021/12/14 09:34:29;;;;;;;8.93;5.27;;;;;;;9.95;62.93;97667.16;5066849;28;20915;-67
2021/12/14 09:36:56;;;;;;;7.07;5.93;;;;;;;9.96;63.02;97653.06;5038251;28;21023;-67
2021/12/14 09:39:35;;;;;;;12.57;6.90;;;;;;;10.03;62.91;97645.50;5055206;28;20426;-66
2021/12/14 09:42:05;;;;;;;14.13;9.87;;;;;;;10.09;62.76;97646.75;5057223;28;21079;-67
2021/12/14 09:44:31;;;;;;;9.17;5.40;;;;;;;10.13;62.99;97648.13;5065063;28;20428;-68
2021/12/14 09:47:00;;;;;;;12.20;6.50;;;;;;;10.43;62.33;97654.22;5071925;28;20467;-68
2021/12/14 09:49:26;;;;;;;6.83;4.87;;;;;;;9.93;62.37;97650.75;5061961;28;20435;-68
2021/12/14 09:51:56;;;;;;;5.30;4.20;;;;;;;9.91;63.71;97657.91;5060969;28;20852;-66
2021/12/14 09:54:25;;;;;;;14.50;8.77;;;;;;;9.38;64.87;97669.53;5060562;28;20451;-67
2021/12/14 09:57:06;;;;;;;13.33;6.37;;;;;;;9.81;63.92;97676.22;5060190;28;20471;-66
2021/12/14 09:59:32;;;;;;;20.17;4.17;;;;;;;10.08;62.65;97660.81;5071276;28;20527;-67
2021/12/14 10:02:03;;;;;;;7.37;4.40;;;;;;;10.43;62.09;97654.22;5070135;28;20429;-67
2021/12/14 10:04:44;;;;;;;7.57;4.67;;;;;;;9.81;62.91;97670.19;5062515;28;20208;-68
2021/12/14 10:07:10;;;;;;;33.53;11.70;;;;;;;10.17;62.70;97661.75;5066365;28;20548;-67
2021/12/14 10:09:42;;;;;;;7.10;4.20;;;;;;;10.41;61.70;97662.19;5059267;28;20520;-67
2021/12/14 10:14:50;;;;;;;5.23;4.03;;;;;;;10.27;62.01;97650.31;5060073;28;20421;-66
2021/12/14 10:17:20;;;;;;;5.03;3.17;;;;;;;10.48;61.57;97638.06;5071021;28;20433;-68
2021/12/14 10:19:47;;;;;;;5.43;3.63;;;;;;;10.60;61.34;97648.22;5061191;28;20465;-66
2021/12/14 10:22:17;;;;;;;5.70;4.53;;;;;;;10.11;62.22;97652.66;5050745;28;20833;-67
2021/12/14 10:24:43;;;;;;;4.40;4.00;;;;;;;10.00;62.92;97656.28;5048493;28;20429;-67
2021/12/14 10:27:12;;;;;;;13.67;6.03;;;;;;;10.06;63.25;97652.28;5049958;28;20770;-66
2021/12/14 10:29:39;;;;;;;21.73;7.20;;;;;;;10.14;63.23;97640.13;5055101;28;20496;-68
2021/12/14 10:32:31;;;;;;;4.50;3.27;;;;;;;10.29;62.47;97640.53;5049766;28;20437;-67
2021/12/14 10:35:01;;;;;;;54.10;12.70;;;;;;;10.19;62.76;97650.19;5040722;28;20456;-67
2021/12/14 10:37:50;;;;;;;5.20;3.17;;;;;;;10.63;61.53;97647.13;5066003;28;20922;-69
2021/12/14 10:43:13;;;;;;;7.20;4.27;;;;;;;10.70;61.37;97655.25;5053393;28;20429;-66
2021/12/14 10:45:42;;;;;;;5.63;5.03;;;;;;;10.64;61.78;97653.19;5052351;28;20422;-67
2021/12/14 10:48:09;;;;;;;6.03;4.77;;;;;;;10.74;61.59;97656.59;5067477;28;20458;-67
2021/12/14 10:50:38;;;;;;;6.67;4.73;;;;;;;10.71;61.29;97659.53;5050739;28;20506;-67
2021/12/14 10:53:07;;;;;;;5.60;4.53;;;;;;;10.53;62.28;97649.78;5055407;28;20584;-68
2021/12/14 10:55:46;;;;;;;7.10;4.17;;;;;;;10.68;61.44;97646.69;5063360;28;20505;-67
2021/12/14 10:58:13;;;;;;;6.90;5.00;;;;;;;10.45;62.59;97650.47;5053996;28;20460;-68
2021/12/14 11:01:13;;;;;;;8.27;5.30;;;;;;;10.57;62.00;97656.38;5062497;28;20429;-68
2021/12/14 11:03:44;;;;;;;6.67;5.63;;;;;;;10.71;61.41;97660.34;5068667;28;20497;-69
2021/12/14 11:06:13;;;;;;;5.57;4.63;;;;;;;10.78;61.51;97657.13;5064641;28;20460;-67
2021/12/14 11:08:55;;;;;;;7.00;5.60;;;;;;;11.01;60.75;97657.63;5057184;28;20471;-67
2021/12/14 11:11:51;;;;;;;6.10;4.83;;;;;;;11.04;60.32;97652.91;5046016;28;20515;-67
2021/12/14 11:14:21;;;;;;;5.67;5.17;;;;;;;11.06;60.62;97655.41;5060959;28;20519;-66
2021/12/14 11:19:47;;;;;;;7.80;5.93;;;;;;;11.09;60.60;97651.66;5044352;28;20433;-66
2021/12/14 11:22:21;;;;;;;10.60;5.50;;;;;;;10.81;60.91;97652.47;5060297;28;20821;-66
2021/12/14 11:25:06;;;;;;;8.50;5.90;;;;;;;10.89;60.62;97644.69;5054212;28;20430;-66
2021/12/14 11:27:34;;;;;;;9.47;5.77;;;;;;;10.90;61.07;97648.13;5059357;28;20602;-66
2021/12/14 11:30:28;;;;;;;6.20;5.30;;;;;;;10.87;61.37;97638.75;5057987;28;20919;-67
2021/12/14 11:33:17;;;;;;;8.40;6.00;;;;;;;10.93;61.13;97644.41;5070449;28;20436;-67
2021/12/14 11:36:00;;;;;;;5.77;4.80;;;;;;;10.81;60.59;97646.38;5055029;28;20436;-67
2021/12/14 11:38:30;;;;;;;11.40;5.53;;;;;;;11.04;60.40;97646.84;5071552;28;20927;-67
2021/12/14 11:40:59;;;;;;;5.57;4.97;;;;;;;11.11;59.78;97647.09;5065273;28;20511;-67
2021/12/14 11:43:27;;;;;;;8.03;5.10;;;;;;;11.27;58.92;97657.81;5074841;28;20428;-67
2021/12/14 11:45:53;;;;;;;7.70;5.13;;;;;;;11.14;59.30;97657.31;5065026;28;20483;-66
2021/12/14 11:48:34;;;;;;;8.20;5.00;;;;;;;10.06;61.94;97658.31;5071095;28;21186;-67
2021/12/14 11:51:04;;;;;;;5.63;4.57;;;;;;;10.45;61.59;97654.91;5071244;28;20220;-67
2021/12/14 11:53:29;;;;;;;7.87;5.83;;;;;;;10.55;60.67;97655.69;5059116;28;20534;-66
2021/12/14 11:56:02;;;;;;;8.23;5.47;;;;;;;11.10;58.97;97651.50;5063013;28;20963;-66
2021/12/14 11:58:43;;;;;;;7.77;5.70;;;;;;;11.13;58.22;97642.53;5058074;28;20202;-66
2021/12/14 12:01:20;;;;;;;9.43;6.10;;;;;;;11.27;57.78;97631.56;5063848;28;20425;-68
2021/12/14 12:04:05;;;;;;;8.40;6.17;;;;;;;11.43;57.67;97625.69;5064012;28;20440;-68
2021/12/14 12:09:29;;;;;;;13.43;6.03;;;;;;;11.96;56.41;97616.16;5061084;28;20433;-67
2021/12/14 12:12:03;;;;;;;8.10;5.60;;;;;;;12.16;55.41;97615.22;5073577;28;20494;-67
2021/12/14 12:14:38;;;;;;;8.50;5.70;;;;;;;12.54;55.07;97618.44;5067613;28;21106;-66
2021/12/14 12:17:10;;;;;;;6.07;5.17;;;;;;;12.30;54.58;97619.91;5056194;28;20452;-67
2021/12/14 12:19:36;;;;;;;8.93;6.00;;;;;;;12.59;54.52;97626.69;5060127;28;20430;-66
2021/12/14 12:22:12;;;;;;;7.60;5.57;;;;;;;12.50;53.92;97617.09;5067874;28;20425;-65
2021/12/14 12:24:44;;;;;;;7.43;5.00;;;;;;;12.39;54.33;97616.38;5073180;28;20890;-66
2021/12/14 12:27:28;;;;;;;6.23;5.03;;;;;;;12.57;53.95;97620.75;5067735;28;20560;-66
2021/12/14 12:30:35;;;;;;;6.53;5.17;;;;;;;12.71;54.17;97619.34;5054759;28;20433;-67